| time (UTC) | temp F | wind direction | speed MPH | gust MPH | rain 1hr in | rain 24hr in | rain mn in | humidity % | barometer mb |
| 20260901230046 | 72 | 296 | 7.0 | 14.0 | 0.00 | 0.00 | 0.00 | 45 | 1009.8 |
| 20260901224544 | 73 | 259 | 8.0 | 14.0 | 0.00 | 0.00 | 0.00 | 44 | 1009.7 |
| 20260901223044 | 74 | 264 | 9.0 | 16.0 | 0.00 | 0.00 | 0.00 | 42 | 1009.6 |
| 20260901221543 | 76 | 281 | 10.0 | 14.0 | 0.00 | 0.00 | 0.00 | 41 | 1009.6 |
| 20260901220109 | 76 | 264 | 10.0 | 15.0 | 0.00 | 0.00 | 0.00 | 40 | 1009.5 |
| 20260901214540 | 76 | 282 | 9.0 | 14.0 | 0.00 | 0.00 | 0.00 | 39 | 1009.6 |
| 20260901213105 | 76 | 279 | 9.0 | 11.0 | 0.00 | 0.00 | 0.00 | 39 | 1009.6 |
| 20260901211539 | 77 | 270 | 8.0 | 14.0 | 0.00 | 0.00 | 0.00 | 38 | 1009.7 |
| 20260901210047 | 78 | 264 | 6.0 | 12.0 | 0.00 | 0.00 | 0.00 | 37 | 1009.6 |
| 20260901204539 | 78 | 266 | 5.0 | 9.0 | 0.00 | 0.00 | 0.00 | 38 | 1009.8 |
| 20260901203052 | 77 | 273 | 4.0 | 13.0 | 0.00 | 0.00 | 0.00 | 37 | 1009.9 |
| 20260901201534 | 77 | 94 | 1.0 | 5.0 | 0.00 | 0.00 | 0.00 | 37 | 1010.0 |
| 20260901200034 | 77 | 265 | 2.0 | 8.0 | 0.00 | 0.00 | 0.00 | 37 | 1010.2 |
| 20260901194537 | 75 | 190 | 2.0 | 5.0 | 0.00 | 0.00 | 0.00 | 39 | 1010.6 |
| 20260901193028 | 73 | 221 | 4.0 | 8.0 | 0.00 | 0.00 | 0.00 | 40 | 1010.9 |
| 20260901191526 | 74 | 261 | 5.0 | 8.0 | 0.00 | 0.00 | 0.00 | 40 | 1011.0 |
| 20260901190026 | 73 | 205 | 2.0 | 6.0 | 0.00 | 0.00 | 0.00 | 42 | 1011.3 |
| 20260901184529 | 72 | 269 | 0.0 | 9.0 | 0.00 | 0.00 | 0.00 | 43 | 1011.4 |
| 20260901183031 | 72 | 54 | 4.0 | 7.0 | 0.00 | 0.00 | 0.00 | 43 | 1011.5 |
| 20260901181518 | 71 | 124 | 1.0 | 5.0 | 0.00 | 0.00 | 0.00 | 46 | 1011.7 |
| 20260901180014 | 70 | 271 | 4.0 | 8.0 | 0.00 | 0.00 | 0.00 | 47 | 1011.8 |
| 20260901174510 | 68 | 28 | 1.0 | 7.0 | 0.00 | 0.00 | 0.00 | 49 | 1012.0 |
| 20260901173006 | 68 | 242 | 1.0 | 5.0 | 0.00 | 0.00 | 0.00 | 51 | 1012.1 |
| 20260901171506 | 68 | 319 | 0.0 | 8.0 | 0.00 | 0.00 | 0.00 | 52 | 1012.1 |
| 20260901170003 | 66 | 111 | 2.0 | 6.0 | 0.00 | 0.00 | 0.00 | 55 | 1012.1 |
| 20260901164620 | 65 | 165 | 5.0 | 9.0 | 0.00 | 0.00 | 0.00 | 56 | 1012.2 |
| 20260901163058 | 65 | 206 | 2.0 | 7.0 | 0.00 | 0.00 | 0.00 | 56 | 1012.4 |
| 20260901161556 | 64 | 119 | 1.0 | 5.0 | 0.00 | 0.00 | 0.00 | 58 | 1012.4 |
| 20260901160056 | 62 | 59 | 0.0 | 3.0 | 0.00 | 0.00 | 0.00 | 62 | 1012.4 |
| 20260901154551 | 60 | 167 | 0.0 | 2.0 | 0.00 | 0.00 | 0.00 | 64 | 1012.3 |
| 20260901153049 | 58 | 143 | 1.0 | 3.0 | 0.00 | 0.00 | 0.00 | 67 | 1012.3 |
| 20260901151544 | 56 | 86 | 0.0 | 2.0 | 0.00 | 0.00 | 0.00 | 70 | 1012.2 |
| 20260901150041 | 53 | 192 | 0.0 | 0.0 | 0.00 | 0.00 | 0.00 | 71 | 1012.0 |
| 20260901144536 | 51 | 132 | 0.0 | 0.0 | 0.00 | 0.00 | 0.00 | 75 | 1011.8 |
| 20260901143042 | 50 | 74 | 0.0 | 0.0 | 0.00 | 0.00 | 0.00 | 77 | 1011.6 |
| 20260901141530 | 48 | 31 | 0.0 | 0.0 | 0.00 | 0.00 | 0.00 | 77 | 1011.4 |
| 20260901140041 | 48 | 273 | 0.0 | 0.0 | 0.00 | 0.00 | 0.00 | 76 | 1011.5 |
| 20260901134524 | 49 | 232 | 0.0 | 0.0 | 0.00 | 0.00 | 0.00 | 73 | 1011.3 |
| 20260901133025 | 49 | 229 | 0.0 | 0.0 | 0.00 | 0.00 | 0.00 | 73 | 1011.1 |
| 20260901131525 | 49 | 9 | 0.0 | 0.0 | 0.00 | 0.00 | 0.00 | 74 | 1010.9 |
| 20260901130035 | 49 | 304 | 0.0 | 0.0 | 0.00 | 0.00 | 0.00 | 72 | 1011.0 |
| 20260901124520 | 50 | 260 | 0.0 | 0.0 | 0.00 | 0.00 | 0.00 | 70 | 1010.9 |
| 20260901123021 | 50 | 260 | 0.0 | 0.0 | 0.00 | 0.00 | 0.00 | 70 | 1011.0 |
| 20260901121517 | 51 | 260 | 0.0 | 0.0 | 0.00 | 0.00 | 0.00 | 70 | 1010.9 |
| 20260901120028 | 51 | 251 | 0.0 | 0.0 | 0.00 | 0.00 | 0.00 | 69 | 1010.8 |
| 20260901114511 | 51 | 349 | 0.0 | 0.0 | 0.00 | 0.00 | 0.00 | 68 | 1010.7 |
| 20260901113008 | 51 | 346 | 0.0 | 0.0 | 0.00 | 0.00 | 0.00 | 68 | 1010.5 |
| 20260901111507 | 52 | 313 | 0.0 | 0.0 | 0.00 | 0.00 | 0.00 | 67 | 1010.5 |
| 20260901110009 | 52 | 309 | 0.0 | 0.0 | 0.00 | 0.00 | 0.00 | 65 | 1010.3 |
| 20260901104503 | 52 | 311 | 0.0 | 0.0 | 0.00 | 0.00 | 0.00 | 66 | 1010.3 |
| 20260901103001 | 53 | 303 | 0.0 | 0.0 | 0.00 | 0.00 | 0.00 | 62 | 1010.2 |
| 20260901101608 | 54 | 258 | 0.0 | 0.0 | 0.00 | 0.00 | 0.00 | 62 | 1010.1 |
| 20260901100057 | 55 | 96 | 0.0 | 0.0 | 0.00 | 0.00 | 0.00 | 62 | 1010.0 |
| 20260901094552 | 56 | 336 | 0.0 | 0.0 | 0.00 | 0.00 | 0.00 | 60 | 1010.1 |
| 20260901093049 | 56 | 336 | 0.0 | 0.0 | 0.00 | 0.00 | 0.00 | 57 | 1010.1 |
| 20260901091547 | 57 | 295 | 0.0 | 0.0 | 0.00 | 0.00 | 0.00 | 55 | 1010.1 |
| 20260901090042 | 59 | 292 | 0.0 | 0.0 | 0.00 | 0.00 | 0.00 | 54 | 1010.0 |
| 20260901084541 | 59 | 293 | 0.0 | 0.0 | 0.00 | 0.00 | 0.00 | 54 | 1010.0 |
| 20260901083039 | 59 | 94 | 0.0 | 0.0 | 0.00 | 0.00 | 0.00 | 52 | 1010.2 |
| 20260901081537 | 60 | 75 | 0.0 | 0.0 | 0.00 | 0.00 | 0.00 | 51 | 1010.3 |
| 20260901080033 | 61 | 355 | 0.0 | 0.0 | 0.00 | 0.00 | 0.00 | 48 | 1010.2 |
| 20260901074531 | 63 | 290 | 0.0 | 0.0 | 0.00 | 0.00 | 0.00 | 45 | 1010.2 |
| 20260901073027 | 64 | 265 | 0.0 | 2.0 | 0.00 | 0.00 | 0.00 | 44 | 1010.1 |
| 20260901071525 | 65 | 273 | 1.0 | 3.0 | 0.00 | 0.00 | 0.00 | 43 | 1010.0 |
| 20260901070023 | 65 | 243 | 2.0 | 5.0 | 0.00 | 0.00 | 0.00 | 44 | 1010.0 |
| 20260901064526 | 64 | 254 | 2.0 | 5.0 | 0.00 | 0.00 | 0.00 | 44 | 1010.0 |
| 20260901063019 | 65 | 204 | 2.0 | 4.0 | 0.00 | 0.00 | 0.00 | 41 | 1009.9 |
| 20260901061519 | 66 | 252 | 0.0 | 0.0 | 0.00 | 0.00 | 0.00 | 37 | 1009.8 |
| 20260901060018 | 67 | 252 | 0.0 | 3.0 | 0.00 | 0.00 | 0.00 | 36 | 1009.7 |
| 20260901054518 | 68 | 224 | 3.0 | 3.0 | 0.00 | 0.00 | 0.00 | 33 | 1009.7 |
| 20260901053018 | 70 | 279 | 0.0 | 3.0 | 0.00 | 0.00 | 0.00 | 32 | 1009.8 |
| 20260901051517 | 71 | 281 | 1.0 | 4.0 | 0.00 | 0.00 | 0.00 | 29 | 1009.7 |
| 20260901050017 | 71 | 271 | 1.0 | 4.0 | 0.00 | 0.00 | 0.00 | 29 | 1009.6 |
| 20260901044516 | 72 | 283 | 1.0 | 4.0 | 0.00 | 0.00 | 0.00 | 26 | 1009.3 |
| 20260901043016 | 73 | 301 | 1.0 | 3.0 | 0.00 | 0.00 | 0.00 | 26 | 1009.1 |
| 20260901041515 | 74 | 259 | 4.0 | 11.0 | 0.00 | 0.00 | 0.00 | 25 | 1008.7 |
| 20260901040015 | 75 | 262 | 6.0 | 10.0 | 0.00 | 0.00 | 0.00 | 24 | 1008.4 |
| 20260901034522 | 76 | 270 | 8.0 | 14.0 | 0.00 | 0.00 | 0.00 | 24 | 1008.1 |
| 20260901033013 | 76 | 257 | 6.0 | 10.0 | 0.00 | 0.00 | 0.00 | 23 | 1007.7 |
| 20260901031521 | 78 | 255 | 4.0 | 10.0 | 0.00 | 0.00 | 0.00 | 22 | 1007.3 |
| 20260901030011 | 79 | 261 | 5.0 | 13.0 | 0.00 | 0.00 | 0.00 | 22 | 1007.0 |
| 20260901024510 | 81 | 244 | 4.0 | 16.0 | 0.00 | 0.00 | 0.00 | 23 | 1006.8 |
| 20260901023011 | 82 | 242 | 9.0 | 14.0 | 0.00 | 0.00 | 0.00 | 23 | 1006.4 |
| 20260901021511 | 84 | 254 | 5.0 | 14.0 | 0.00 | 0.00 | 0.00 | 26 | 1006.1 |
| 20260901020008 | 85 | 263 | 7.0 | 15.0 | 0.00 | 0.00 | 0.00 | 23 | 1005.9 |
| 20260901014507 | 86 | 238 | 11.0 | 16.0 | 0.00 | 0.00 | 0.00 | 23 | 1005.7 |
| 20260901013007 | 87 | 283 | 10.0 | 18.0 | 0.00 | 0.00 | 0.00 | 23 | 1005.5 |
| 20260901011515 | 88 | 268 | 12.0 | 19.0 | 0.00 | 0.00 | 0.00 | 24 | 1005.1 |
| 20260901010005 | 89 | 259 | 11.0 | 17.0 | 0.00 | 0.00 | 0.00 | 24 | 1005.0 |
| 20260901004506 | 88 | 273 | 9.0 | 16.0 | 0.00 | 0.00 | 0.00 | 25 | 1005.0 |
| 20260901003002 | 90 | 302 | 11.0 | 17.0 | 0.00 | 0.00 | 0.00 | 24 | 1004.8 |
| 20260901001501 | 92 | 284 | 9.0 | 16.0 | 0.00 | 0.00 | 0.00 | 22 | 1004.8 |
| 20260901000059 | 93 | 247 | 10.0 | 14.0 | 0.00 | 0.00 | 0.00 | 21 | 1004.8 |
| 20260831234559 | 93 | 251 | 8.0 | 13.0 | 0.00 | 0.00 | 0.00 | 21 | 1005.0 |
| 20260831233057 | 94 | 254 | 7.0 | 16.0 | 0.00 | 0.00 | 0.00 | 21 | 1005.0 |
| 20260831231556 | 94 | 227 | 7.0 | 16.0 | 0.00 | 0.00 | 0.00 | 20 | 1005.2 |